createdAt,value
2023-05-23T00:00:33.938Z,100205.67
2023-05-23T00:03:25.226Z,100208.02
2023-05-23T00:05:54.046Z,100202.00
2023-05-23T00:08:22.855Z,100199.46
2023-05-23T00:10:53.578Z,100203.38
2023-05-23T00:13:24.139Z,100200.66
2023-05-23T00:15:54.820Z,100201.37
2023-05-23T00:18:25.153Z,100198.63
2023-05-23T00:20:54.083Z,100195.89
2023-05-23T00:23:26.524Z,100193.65
2023-05-23T00:25:56.378Z,100199.09
2023-05-23T00:28:26.521Z,100199.63
2023-05-23T00:30:55.981Z,100199.61
2023-05-23T00:33:26.225Z,100201.87
2023-05-23T00:35:55.277Z,100197.83
2023-05-23T00:38:26.252Z,100193.99
2023-05-23T00:40:56.250Z,100190.86
2023-05-23T00:43:26.143Z,100193.05
2023-05-23T00:45:54.928Z,100192.34
2023-05-23T00:48:24.373Z,100190.13
2023-05-23T00:50:53.674Z,100187.16
2023-05-23T00:53:23.478Z,100185.40
2023-05-23T00:55:52.323Z,100180.54
2023-05-23T00:58:21.727Z,100181.38
2023-05-23T01:00:50.839Z,100183.92
2023-05-23T01:03:23.070Z,100175.63
2023-05-23T01:05:52.072Z,100178.48
2023-05-23T01:08:21.706Z,100179.13
2023-05-23T01:10:52.516Z,100177.74
2023-05-23T01:13:25.880Z,100180.84
2023-05-23T01:15:59.831Z,100181.63
2023-05-23T01:18:55.260Z,100182.82
2023-05-23T01:21:24.798Z,100182.84
2023-05-23T01:23:56.069Z,100183.34
2023-05-23T01:26:42.106Z,100182.76
2023-05-23T01:29:38.571Z,100183.73
2023-05-23T01:32:11.923Z,100184.71
2023-05-23T01:34:42.081Z,100181.70
2023-05-23T01:37:12.188Z,100175.08
2023-05-23T01:39:42.526Z,100171.77
2023-05-23T01:42:12.622Z,100173.93
2023-05-23T01:44:42.618Z,100172.95
2023-05-23T01:47:13.196Z,100169.06
2023-05-23T01:49:45.388Z,100168.36
2023-05-23T01:52:15.994Z,100170.08
2023-05-23T01:54:45.452Z,100171.54
2023-05-23T01:57:14.587Z,100168.75
2023-05-23T01:59:44.107Z,100165.92
2023-05-23T02:02:14.142Z,100168.13
2023-05-23T02:04:44.231Z,100166.59
2023-05-23T02:07:12.958Z,100163.98
2023-05-23T02:09:44.380Z,100160.78
2023-05-23T02:12:17.029Z,100158.40
2023-05-23T02:14:45.943Z,100165.20
2023-05-23T02:17:17.219Z,100162.27
2023-05-23T02:19:47.791Z,100155.77
2023-05-23T02:22:16.788Z,100153.26
2023-05-23T02:24:45.773Z,100154.76
2023-05-23T02:27:15.148Z,100154.50
2023-05-23T02:29:47.438Z,100151.18
2023-05-23T02:32:18.829Z,100154.50
2023-05-23T02:34:50.783Z,100150.14
2023-05-23T02:37:20.040Z,100150.06
2023-05-23T02:39:50.619Z,100150.70
2023-05-23T02:42:20.331Z,100145.52
2023-05-23T02:44:51.049Z,100141.73
2023-05-23T02:47:20.264Z,100143.21
2023-05-23T02:49:50.811Z,100136.67
2023-05-23T02:52:20.082Z,100140.61
2023-05-23T02:54:48.845Z,100137.89
2023-05-23T02:57:19.328Z,100136.03
2023-05-23T02:59:48.100Z,100132.70
2023-05-23T03:02:17.127Z,100135.59
2023-05-23T03:04:48.719Z,100131.02
2023-05-23T03:07:27.694Z,100131.70
2023-05-23T03:09:58.218Z,100129.50
2023-05-23T03:12:29.750Z,100128.58
2023-05-23T03:14:58.459Z,100126.30
2023-05-23T03:17:27.513Z,100130.52
2023-05-23T03:19:58.879Z,100130.16
2023-05-23T03:22:29.289Z,100127.76
2023-05-23T03:25:00.211Z,100129.06
2023-05-23T03:27:29.833Z,100125.05
2023-05-23T03:30:00.979Z,100128.22
2023-05-23T03:32:30.653Z,100133.80
2023-05-23T03:34:59.717Z,100128.95
2023-05-23T03:37:28.855Z,100134.71
2023-05-23T03:39:59.477Z,100136.40
2023-05-23T03:42:29.099Z,100137.92
2023-05-23T03:44:58.171Z,100138.48
2023-05-23T03:47:27.243Z,100132.91
2023-05-23T03:49:57.729Z,100129.55
2023-05-23T03:52:27.543Z,100127.58
2023-05-23T03:54:56.602Z,100126.84
2023-05-23T03:57:29.522Z,100128.05
2023-05-23T03:59:59.384Z,100122.44
2023-05-23T04:02:30.205Z,100120.46
2023-05-23T04:05:01.097Z,100119.77
2023-05-23T04:07:30.949Z,100113.55
2023-05-23T04:10:00.268Z,100109.50
2023-05-23T04:12:31.112Z,100105.71
2023-05-23T04:15:00.568Z,100107.64
2023-05-23T04:17:31.815Z,100108.14
2023-05-23T04:20:02.445Z,100108.61
2023-05-23T04:22:33.960Z,100102.90
2023-05-23T04:25:03.728Z,100100.15
2023-05-23T04:27:40.764Z,100105.84
2023-05-23T04:30:10.859Z,100101.58
2023-05-23T04:32:43.312Z,100106.27
2023-05-23T04:35:14.827Z,100112.75
2023-05-23T04:37:45.878Z,100110.23
2023-05-23T04:40:17.581Z,100113.79
2023-05-23T04:43:10.584Z,100112.06
2023-05-23T04:46:05.355Z,100114.41
2023-05-23T04:48:45.092Z,100118.54
2023-05-23T04:51:14.107Z,100116.70
2023-05-23T04:53:54.290Z,100109.84
2023-05-23T04:56:28.591Z,100108.04
2023-05-23T04:58:58.054Z,100111.33
2023-05-23T05:01:30.128Z,100105.99
2023-05-23T05:04:01.474Z,100109.20
2023-05-23T05:06:31.429Z,100104.35
2023-05-23T05:09:02.985Z,100101.91
2023-05-23T05:11:32.115Z,100098.71
2023-05-23T05:14:02.963Z,100095.36
2023-05-23T05:16:32.202Z,100094.55
2023-05-23T05:19:03.173Z,100089.89
2023-05-23T05:21:34.922Z,100089.52
2023-05-23T05:24:04.570Z,100085.04
2023-05-23T05:26:34.702Z,100088.33
2023-05-23T05:29:04.721Z,100084.77
2023-05-23T05:31:34.210Z,100084.27
2023-05-23T05:34:04.271Z,100078.54
2023-05-23T05:36:46.285Z,100081.03
2023-05-23T05:39:16.097Z,100074.90
2023-05-23T05:41:45.202Z,100075.02
2023-05-23T05:44:17.688Z,100074.34
2023-05-23T05:46:48.881Z,100071.34
2023-05-23T05:49:17.950Z,100074.98
2023-05-23T05:51:48.233Z,100075.75
2023-05-23T05:54:19.454Z,100072.52
2023-05-23T05:56:50.016Z,100067.05
2023-05-23T05:59:20.009Z,100062.66
2023-05-23T06:01:51.645Z,100060.98
2023-05-23T06:04:20.592Z,100055.71
2023-05-23T06:06:49.914Z,100055.14
2023-05-23T06:09:20.065Z,100051.96
2023-05-23T06:11:50.462Z,100050.84
2023-05-23T06:14:19.274Z,100046.66
2023-05-23T06:16:50.315Z,100045.98
2023-05-23T06:19:20.899Z,100046.27
2023-05-23T06:21:51.491Z,100043.08
2023-05-23T06:24:22.851Z,100046.07
2023-05-23T06:26:51.679Z,100036.63
2023-05-23T06:29:20.916Z,100040.86
2023-05-23T06:31:50.883Z,100035.29
2023-05-23T06:34:20.890Z,100031.14
2023-05-23T06:36:51.433Z,100033.50
2023-05-23T06:39:23.226Z,100031.22
2023-05-23T06:41:52.267Z,100023.81
2023-05-23T06:44:22.010Z,100022.98
2023-05-23T06:46:57.941Z,100015.77
2023-05-23T06:49:27.054Z,100019.45
2023-05-23T06:51:56.352Z,100022.34
2023-05-23T06:54:25.219Z,100019.55
2023-05-23T06:56:54.950Z,100022.05
2023-05-23T06:59:23.973Z,100019.16
2023-05-23T07:01:53.518Z,100020.32
2023-05-23T07:04:22.482Z,100014.88
2023-05-23T07:06:53.031Z,100017.59
2023-05-23T07:09:22.226Z,100013.82
2023-05-23T07:11:52.053Z,100009.30
2023-05-23T07:14:21.436Z,100002.86
2023-05-23T07:16:52.019Z,100004.01
2023-05-23T07:19:21.672Z,99999.13
2023-05-23T07:21:53.203Z,100003.81
2023-05-23T07:24:23.907Z,99995.82
2023-05-23T07:26:57.560Z,99993.85
2023-05-23T07:29:27.548Z,99990.27
2023-05-23T07:31:57.728Z,99988.73
2023-05-23T07:34:27.427Z,99992.11
2023-05-23T07:37:01.806Z,99991.05
2023-05-23T07:39:35.190Z,99985.98
2023-05-23T07:42:04.615Z,99983.34
2023-05-23T07:44:34.332Z,99982.09
2023-05-23T07:47:05.548Z,99981.80
2023-05-23T07:49:34.826Z,99977.16
2023-05-23T07:52:03.902Z,99979.98
2023-05-23T07:54:35.222Z,99978.80
2023-05-23T07:57:04.441Z,99969.38
2023-05-23T07:59:33.423Z,99972.75
2023-05-23T08:02:02.913Z,99968.77
2023-05-23T08:04:32.692Z,99957.64
2023-05-23T08:07:05.533Z,99961.23
2023-05-23T08:09:54.957Z,99968.10
2023-05-23T08:12:24.548Z,99969.52
2023-05-23T08:14:59.939Z,99968.35
2023-05-23T08:17:35.393Z,99968.56
2023-05-23T08:20:05.738Z,99965.73
2023-05-23T08:22:35.009Z,99966.04
2023-05-23T08:25:04.801Z,99965.91
2023-05-23T08:27:36.328Z,99961.55
2023-05-23T08:30:10.918Z,99966.48
2023-05-23T08:32:40.085Z,99965.61
2023-05-23T08:35:10.959Z,99968.16
2023-05-23T08:37:46.666Z,99962.45
2023-05-23T08:40:26.530Z,99965.92
2023-05-23T08:43:06.585Z,99959.20
2023-05-23T08:45:36.919Z,99947.71
2023-05-23T08:48:09.591Z,99957.68
2023-05-23T08:50:43.726Z,99952.80
2023-05-23T08:53:20.595Z,99947.18
2023-05-23T08:55:54.915Z,99944.77
2023-05-23T08:58:29.540Z,99946.00
2023-05-23T09:01:00.217Z,99947.69
2023-05-23T09:03:30.186Z,99946.16
2023-05-23T09:06:14.432Z,99939.10
2023-05-23T09:08:46.811Z,99931.04
2023-05-23T09:11:16.179Z,99938.70
2023-05-23T09:13:46.655Z,99941.73
2023-05-23T09:16:20.788Z,99941.26
2023-05-23T09:18:58.117Z,99930.09
2023-05-23T09:21:27.910Z,99929.63
2023-05-23T09:24:02.508Z,99931.33
2023-05-23T09:26:32.682Z,99930.94
2023-05-23T09:29:05.495Z,99932.90
2023-05-23T09:31:35.160Z,99933.39
2023-05-23T09:34:05.134Z,99937.65
2023-05-23T09:36:35.520Z,99931.09
2023-05-23T09:39:08.553Z,99928.69
2023-05-23T09:41:37.989Z,99925.98
2023-05-23T09:44:08.892Z,99924.44
2023-05-23T09:46:41.214Z,99922.11
2023-05-23T09:49:20.313Z,99918.10
2023-05-23T09:52:00.524Z,99908.71
2023-05-23T09:54:29.943Z,99921.50
2023-05-23T09:57:01.887Z,99918.50
2023-05-23T09:59:32.281Z,99917.25
2023-05-23T10:02:02.996Z,99913.67
2023-05-23T10:04:33.607Z,99916.01
2023-05-23T10:07:23.898Z,99920.25
2023-05-23T10:09:57.517Z,99910.30
2023-05-23T10:12:40.461Z,99907.24
2023-05-23T10:15:10.943Z,99917.29
2023-05-23T10:17:39.943Z,99915.80
2023-05-23T10:20:12.726Z,99916.68
2023-05-23T10:22:42.865Z,99921.47
2023-05-23T10:25:12.261Z,99913.15
2023-05-23T10:27:42.516Z,99920.80
2023-05-23T10:30:12.226Z,99919.73
2023-05-23T10:32:41.777Z,99916.61
2023-05-23T10:35:19.666Z,99918.52
2023-05-23T10:37:54.423Z,99913.20
2023-05-23T10:40:32.796Z,99915.29
2023-05-23T10:43:04.939Z,99909.08
2023-05-23T10:45:44.593Z,99902.41
2023-05-23T10:48:23.447Z,99911.98
2023-05-23T10:51:08.426Z,99909.29
2023-05-23T10:53:39.181Z,99908.30
2023-05-23T10:56:08.923Z,99903.24
2023-05-23T10:58:39.874Z,99905.08
2023-05-23T11:01:10.493Z,99906.57
2023-05-23T11:03:51.941Z,99903.63
2023-05-23T11:06:45.054Z,99891.33
2023-05-23T11:09:20.999Z,99893.33
2023-05-23T11:11:55.824Z,99897.16
2023-05-23T11:14:35.349Z,99893.73
2023-05-23T11:17:13.835Z,99889.70
2023-05-23T11:20:01.881Z,99891.19
2023-05-23T11:22:31.502Z,99895.83
2023-05-23T11:25:01.214Z,99895.50
2023-05-23T11:27:38.200Z,99897.33
2023-05-23T11:30:16.029Z,99898.81
2023-05-23T11:32:55.173Z,99903.41
2023-05-23T11:35:26.007Z,99901.76
2023-05-23T11:37:58.037Z,99898.73
2023-05-23T11:40:37.927Z,99898.52
2023-05-23T11:43:07.759Z,99894.88
2023-05-23T11:45:37.565Z,99897.14
2023-05-23T11:48:12.177Z,99893.40
2023-05-23T11:51:00.552Z,99884.60
2023-05-23T11:53:30.669Z,99884.48
2023-05-23T11:56:02.677Z,99884.27
2023-05-23T11:58:41.296Z,99878.66
2023-05-23T12:01:11.706Z,99879.89
2023-05-23T12:03:49.745Z,99879.75
2023-05-23T12:06:20.713Z,99871.27
2023-05-23T12:08:52.568Z,99870.99
2023-05-23T12:11:26.841Z,99866.80
2023-05-23T12:13:57.395Z,99872.84
2023-05-23T12:16:26.555Z,99861.64
2023-05-23T12:18:58.807Z,99863.80
2023-05-23T12:21:29.025Z,99869.39
2023-05-23T12:24:00.271Z,99862.86
2023-05-23T12:26:31.216Z,99861.55
2023-05-23T12:29:03.917Z,99866.77
2023-05-23T12:31:33.881Z,99876.14
2023-05-23T12:34:03.549Z,99865.12
2023-05-23T12:37:24.616Z,99862.27
2023-05-23T12:39:55.188Z,99864.76
2023-05-23T12:42:24.178Z,99859.04
2023-05-23T12:44:55.429Z,99854.88
2023-05-23T12:47:25.216Z,99852.94
2023-05-23T12:49:55.617Z,99851.65
2023-05-23T12:52:25.156Z,99853.88
2023-05-23T12:54:56.076Z,99850.31
2023-05-23T12:57:27.188Z,99847.02
2023-05-23T12:59:56.128Z,99845.49
2023-05-23T13:02:25.519Z,99845.59
2023-05-23T13:04:55.878Z,99847.48
2023-05-23T13:07:25.611Z,99849.52
2023-05-23T13:09:54.997Z,99847.44
2023-05-23T13:12:25.197Z,99846.59
2023-05-23T13:14:54.440Z,99845.63
2023-05-23T13:17:23.609Z,99846.85
2023-05-23T13:19:54.277Z,99847.67
2023-05-23T13:22:23.663Z,99842.15
2023-05-23T13:24:53.261Z,99840.27
2023-05-23T13:27:22.301Z,99840.11
2023-05-23T13:29:51.706Z,99839.33
2023-05-23T13:32:20.376Z,99840.07
2023-05-23T13:34:51.498Z,99838.30
2023-05-23T13:37:22.134Z,99837.30
2023-05-23T13:39:51.864Z,99831.50
2023-05-23T13:42:21.669Z,99828.73
2023-05-23T13:44:51.504Z,99828.70
2023-05-23T13:47:20.358Z,99832.10
2023-05-23T13:49:51.861Z,99832.15
2023-05-23T13:52:21.513Z,99831.02
2023-05-23T13:54:51.494Z,99823.95
2023-05-23T13:57:20.997Z,99822.79
2023-05-23T13:59:50.081Z,99819.20
2023-05-23T14:02:20.572Z,99815.75
2023-05-23T14:04:50.811Z,99815.09
2023-05-23T14:07:20.286Z,99811.45
2023-05-23T14:09:49.048Z,99809.20
2023-05-23T14:12:19.808Z,99806.80
2023-05-23T14:14:49.243Z,99810.73
2023-05-23T14:17:20.046Z,99808.70
2023-05-23T14:19:52.826Z,99806.79
2023-05-23T14:22:21.975Z,99806.59
2023-05-23T14:24:52.164Z,99805.66
2023-05-23T14:27:20.864Z,99809.60
2023-05-23T14:29:50.275Z,99806.68
2023-05-23T14:32:20.983Z,99809.81
2023-05-23T14:34:50.438Z,99812.70
2023-05-23T14:37:20.141Z,99806.13
2023-05-23T14:39:50.672Z,99810.61
2023-05-23T14:42:20.638Z,99807.30
2023-05-23T14:44:49.818Z,99800.86
2023-05-23T14:47:19.448Z,99799.84
2023-05-23T14:49:49.232Z,99798.55
2023-05-23T14:52:18.561Z,99800.44
2023-05-23T14:54:48.118Z,99796.15
2023-05-23T14:57:17.119Z,99791.52
2023-05-23T14:59:47.001Z,99789.04
2023-05-23T15:02:16.645Z,99788.10
2023-05-23T15:04:46.319Z,99782.30
2023-05-23T15:07:18.515Z,99779.93
2023-05-23T15:09:48.760Z,99779.90
2023-05-23T15:12:19.443Z,99780.31
2023-05-23T15:14:50.016Z,99778.14
2023-05-23T15:17:25.769Z,99776.61
2023-05-23T15:19:58.460Z,99776.93
2023-05-23T15:22:36.560Z,99774.33
2023-05-23T15:25:08.510Z,99774.76
2023-05-23T15:27:39.215Z,99774.55
2023-05-23T15:30:08.617Z,99777.09
2023-05-23T15:32:37.565Z,99780.02
2023-05-23T15:35:10.956Z,99780.98
2023-05-23T15:37:42.988Z,99778.63
2023-05-23T15:40:12.601Z,99779.30
2023-05-23T15:42:42.720Z,99775.05
2023-05-23T15:45:11.795Z,99778.58
2023-05-23T15:47:41.052Z,99778.47
2023-05-23T15:50:12.884Z,99777.73
2023-05-23T15:52:44.739Z,99777.98
2023-05-23T15:55:14.002Z,99774.31
2023-05-23T15:57:44.269Z,99778.39
2023-05-23T16:00:13.384Z,99774.59
2023-05-23T16:02:43.772Z,99774.78
2023-05-23T16:05:12.957Z,99770.02
2023-05-23T16:07:42.269Z,99770.30
2023-05-23T16:10:11.667Z,99768.61
2023-05-23T16:12:40.992Z,99764.27
2023-05-23T16:15:10.295Z,99766.27
2023-05-23T16:17:39.221Z,99763.77
2023-05-23T16:20:11.176Z,99760.67
2023-05-23T16:22:42.170Z,99759.81
2023-05-23T16:25:13.634Z,99755.46
2023-05-23T16:27:44.228Z,99759.64
2023-05-23T16:30:13.188Z,99754.89
2023-05-23T16:32:43.017Z,99754.09
2023-05-23T16:35:50.206Z,99755.35
2023-05-23T16:38:19.373Z,99759.05
2023-05-23T16:40:49.275Z,99757.28
2023-05-23T16:43:18.086Z,99758.16
2023-05-23T16:45:48.625Z,99754.21
2023-05-23T16:48:19.530Z,99750.54
2023-05-23T16:50:48.923Z,99748.90
2023-05-23T16:53:20.262Z,99751.20
2023-05-23T16:55:50.085Z,99754.72
2023-05-23T16:58:21.351Z,99754.38
2023-05-23T17:00:50.989Z,99752.55
2023-05-23T17:03:21.488Z,99756.08
2023-05-23T17:05:50.657Z,99757.42
2023-05-23T17:08:20.001Z,99757.40
2023-05-23T17:10:49.149Z,99752.41
2023-05-23T17:13:18.116Z,99752.05
2023-05-23T17:15:48.410Z,99752.77
2023-05-23T17:18:17.849Z,99751.02
2023-05-23T17:20:47.516Z,99754.08
2023-05-23T17:23:17.656Z,99756.35
2023-05-23T17:25:48.382Z,99756.34
2023-05-23T17:28:19.184Z,99759.09
2023-05-23T17:30:48.214Z,99758.67
2023-05-23T17:33:17.212Z,99756.60
2023-05-23T17:36:13.333Z,99759.97
2023-05-23T17:38:43.072Z,99758.41
2023-05-23T17:41:12.745Z,99758.82
2023-05-23T17:43:44.573Z,99764.20
2023-05-23T17:46:15.000Z,99763.94
2023-05-23T17:48:47.062Z,99763.64
2023-05-23T17:51:17.667Z,99764.71
2023-05-23T17:53:52.045Z,99761.98
2023-05-23T17:56:25.101Z,99761.52
2023-05-23T17:58:54.627Z,99758.82
2023-05-23T18:01:25.390Z,99763.30
2023-05-23T18:03:54.882Z,99765.50
2023-05-23T18:06:24.679Z,99765.67
2023-05-23T18:08:57.110Z,99767.80
2023-05-23T18:11:27.920Z,99767.33
2023-05-23T18:13:56.930Z,99770.17
2023-05-23T18:16:25.750Z,99777.35
2023-05-23T18:18:57.935Z,99776.56
2023-05-23T18:21:27.728Z,99779.80
2023-05-23T18:23:57.095Z,99777.40
2023-05-23T18:26:26.042Z,99778.55
2023-05-23T18:28:56.992Z,99783.48
2023-05-23T18:31:28.182Z,99782.63
2023-05-23T18:33:57.338Z,99785.75
2023-05-23T18:36:30.802Z,99790.39
2023-05-23T18:39:02.610Z,99789.83
2023-05-23T18:41:32.966Z,99791.55
2023-05-23T18:44:02.195Z,99793.63
2023-05-23T18:46:33.230Z,99799.51
2023-05-23T18:49:05.666Z,99802.38
2023-05-23T18:51:35.747Z,99806.53
2023-05-23T18:54:04.558Z,99807.19
2023-05-23T18:56:36.319Z,99807.06
2023-05-23T18:59:05.387Z,99807.23
2023-05-23T19:01:34.764Z,99813.55
2023-05-23T19:04:04.054Z,99813.50
2023-05-23T19:06:33.812Z,99812.40
2023-05-23T19:09:04.704Z,99809.08
2023-05-23T19:11:34.099Z,99812.09
2023-05-23T19:14:04.410Z,99809.64
2023-05-23T19:16:34.775Z,99810.60
2023-05-23T19:19:07.233Z,99809.21
2023-05-23T19:21:37.779Z,99811.04
2023-05-23T19:24:08.787Z,99815.58
2023-05-23T19:26:38.003Z,99818.20
2023-05-23T19:29:06.920Z,99822.31
2023-05-23T19:31:38.552Z,99814.37
2023-05-23T19:34:09.830Z,99815.99
2023-05-23T19:36:41.082Z,99816.19
2023-05-23T19:39:12.899Z,99820.65
2023-05-23T19:41:42.855Z,99821.89
2023-05-23T19:44:13.688Z,99828.83
2023-05-23T19:46:43.261Z,99829.46
2023-05-23T19:49:18.010Z,99825.81
2023-05-23T19:52:05.953Z,99835.55
2023-05-23T19:54:37.568Z,99835.20
2023-05-23T19:57:12.712Z,99837.02
2023-05-23T19:59:47.984Z,99836.30
2023-05-23T20:02:18.351Z,99845.10
2023-05-23T20:04:48.073Z,99839.67
2023-05-23T20:07:25.520Z,99836.75
2023-05-23T20:09:56.542Z,99834.52
2023-05-23T20:12:25.774Z,99833.71
2023-05-23T20:14:55.618Z,99840.25
2023-05-23T20:17:26.066Z,99840.60
2023-05-23T20:19:57.852Z,99844.13
2023-05-23T20:22:27.162Z,99845.48
2023-05-23T20:24:56.229Z,99844.52
2023-05-23T20:27:25.590Z,99848.67
2023-05-23T20:29:56.296Z,99850.05
2023-05-23T20:32:25.665Z,99851.59
2023-05-23T20:34:56.676Z,99850.05
2023-05-23T20:37:28.634Z,99852.52
2023-05-23T20:39:58.386Z,99851.96
2023-05-23T20:42:29.234Z,99851.70
2023-05-23T20:45:00.729Z,99851.69
2023-05-23T20:47:29.744Z,99852.81
2023-05-23T20:49:59.481Z,99852.67
2023-05-23T20:52:28.495Z,99851.59
2023-05-23T20:54:58.652Z,99854.06
2023-05-23T20:57:30.446Z,99853.21
2023-05-23T20:59:59.882Z,99848.34
2023-05-23T21:02:30.555Z,99850.56
2023-05-23T21:05:01.849Z,99852.36
2023-05-23T21:07:32.023Z,99850.66
2023-05-23T21:10:01.797Z,99855.44
2023-05-23T21:12:31.179Z,99850.98
2023-05-23T21:15:00.950Z,99850.61
2023-05-23T21:17:29.926Z,99847.29
2023-05-23T21:20:02.420Z,99847.81
2023-05-23T21:22:31.304Z,99847.75
2023-05-23T21:25:01.709Z,99850.45
2023-05-23T21:27:30.696Z,99845.77
2023-05-23T21:30:03.173Z,99851.77
2023-05-23T21:32:32.268Z,99854.04
2023-05-23T21:35:05.399Z,99853.90
2023-05-23T21:37:34.309Z,99853.89
2023-05-23T21:40:05.733Z,99855.71
2023-05-23T21:42:37.723Z,99858.11
2023-05-23T21:45:08.397Z,99859.65
2023-05-23T21:47:37.270Z,99863.14
2023-05-23T21:50:06.973Z,99866.40
2023-05-23T21:52:36.794Z,99867.05
2023-05-23T21:55:06.284Z,99869.77
2023-05-23T21:57:36.810Z,99871.50
2023-05-23T22:00:12.302Z,99866.27
2023-05-23T22:02:45.018Z,99867.33
2023-05-23T22:05:14.469Z,99869.30
2023-05-23T22:07:45.560Z,99867.44
2023-05-23T22:10:16.284Z,99861.98
2023-05-23T22:12:46.280Z,99867.13
2023-05-23T22:15:15.430Z,99866.77
2023-05-23T22:17:46.652Z,99865.25
2023-05-23T22:20:17.055Z,99864.64
2023-05-23T22:22:46.908Z,99866.80
2023-05-23T22:25:17.161Z,99869.16
2023-05-23T22:27:45.891Z,99864.66
2023-05-23T22:30:14.942Z,99865.84
2023-05-23T22:32:43.997Z,99866.36
2023-05-23T22:35:15.140Z,99866.45
2023-05-23T22:37:45.273Z,99861.61
2023-05-23T22:40:14.601Z,99863.84
2023-05-23T22:42:43.491Z,99863.56
2023-05-23T22:45:13.717Z,99865.30
2023-05-23T22:47:43.157Z,99865.16
2023-05-23T22:50:13.728Z,99859.75
2023-05-23T22:52:43.022Z,99856.52
2023-05-23T22:55:11.825Z,99857.91
2023-05-23T22:57:40.603Z,99858.36
2023-05-23T23:00:11.493Z,99856.20
2023-05-23T23:02:40.301Z,99855.29
2023-05-23T23:05:12.490Z,99857.05
2023-05-23T23:07:41.656Z,99853.65
2023-05-23T23:10:11.193Z,99850.98
2023-05-23T23:12:42.326Z,99854.13
2023-05-23T23:15:11.360Z,99859.21
2023-05-23T23:17:40.227Z,99860.21
2023-05-23T23:20:10.444Z,99868.49
2023-05-23T23:22:40.453Z,99867.19
2023-05-23T23:25:11.510Z,99869.10
2023-05-23T23:27:42.101Z,99858.25
2023-05-23T23:30:13.209Z,99853.39
2023-05-23T23:32:44.015Z,99851.06
2023-05-23T23:35:15.392Z,99851.79
2023-05-23T23:37:45.758Z,99848.80
2023-05-23T23:40:17.266Z,99846.66
2023-05-23T23:42:46.370Z,99848.65
2023-05-23T23:45:16.797Z,99843.64
2023-05-23T23:47:46.767Z,99843.81
2023-05-23T23:50:17.517Z,99845.38
2023-05-23T23:52:46.515Z,99849.95
2023-05-23T23:55:16.005Z,99844.79
2023-05-23T23:57:47.174Z,99845.59
